createdAt,value
2018-12-15T16:18:12.942Z,30.07
2018-12-15T16:48:49.030Z,0.96
2018-12-15T16:53:53.241Z,-0.31
2018-12-15T16:58:57.397Z,-1.09
2018-12-15T17:04:01.482Z,-1.45
2018-12-15T17:09:08.622Z,-1.75
2018-12-15T17:14:12.705Z,-1.92
2018-12-15T17:19:16.786Z,-2.07
2018-12-15T17:24:20.878Z,-2.20
2018-12-15T17:29:24.953Z,-2.33
2018-12-15T17:34:29.849Z,-2.42
2018-12-15T17:39:34.322Z,-2.46
2018-12-15T17:44:38.411Z,-2.54
2018-12-15T17:49:42.490Z,-2.60
2018-12-15T17:54:46.560Z,-2.67
2018-12-15T17:59:50.647Z,-2.71
2018-12-15T18:04:56.725Z,-2.76
2018-12-15T18:10:01.551Z,-2.79
2018-12-15T18:15:06.196Z,-2.88
2018-12-15T18:20:10.330Z,-2.91
2018-12-15T18:25:14.400Z,-2.93
2018-12-15T18:30:18.476Z,-3.00
2018-12-15T18:35:22.630Z,-3.01
2018-12-15T18:40:26.690Z,-2.98
2018-12-15T18:45:30.875Z,-3.03
2018-12-15T18:50:34.943Z,-3.02
2018-12-15T18:55:39.022Z,-3.02
2018-12-15T19:00:43.106Z,-3.03
2018-12-15T19:05:47.178Z,-3.04
2018-12-15T19:10:51.245Z,-3.02
2018-12-15T19:15:55.325Z,-3.02
2018-12-15T19:20:59.443Z,-3.03
2018-12-15T19:26:03.512Z,-3.03
2018-12-15T19:31:07.583Z,-3.01
2018-12-15T19:36:11.756Z,-3.00
2018-12-15T19:41:15.822Z,-3.02
2018-12-15T19:46:19.902Z,-3.06
2018-12-15T19:51:29.470Z,-3.09
2018-12-15T19:56:30.062Z,-3.10
2018-12-15T20:01:34.143Z,-3.12
2018-12-15T20:06:38.221Z,-3.13
2018-12-15T20:11:42.299Z,-3.15
2018-12-15T20:16:46.357Z,-3.16
2018-12-15T20:21:50.427Z,-3.16
2018-12-15T20:26:54.510Z,-3.16
2018-12-15T20:31:58.557Z,-3.18
2018-12-15T20:37:02.646Z,-3.25
2018-12-15T20:42:06.717Z,-3.27
2018-12-15T20:47:10.886Z,-3.34
2018-12-15T20:52:14.961Z,-3.43
2018-12-15T20:57:19.055Z,-3.48
2018-12-15T21:02:23.134Z,-3.51
2018-12-15T21:07:27.214Z,-3.49
2018-12-15T21:12:31.282Z,-3.44
2018-12-15T21:17:35.371Z,-3.40
2018-12-15T21:22:39.471Z,-3.32
2018-12-15T21:27:43.557Z,-3.26
2018-12-15T21:32:47.726Z,-3.16
2018-12-15T21:37:51.796Z,-3.16
2018-12-15T21:42:55.881Z,-3.12
2018-12-15T21:47:59.959Z,-3.08
2018-12-15T21:53:04.042Z,-3.04
2018-12-15T21:58:08.119Z,-3.00
2018-12-15T22:03:12.301Z,-2.97
2018-12-15T22:08:16.373Z,-2.96
2018-12-15T22:13:20.462Z,-2.92
2018-12-15T22:18:24.537Z,-2.91
2018-12-15T22:23:28.630Z,-2.92
2018-12-15T22:28:32.693Z,-2.91
2018-12-15T22:33:36.771Z,-2.96
2018-12-15T22:38:40.867Z,-2.95
2018-12-15T22:43:44.934Z,-2.96
2018-12-15T22:48:49.019Z,-2.97
2018-12-15T22:53:53.102Z,-2.94
2018-12-15T22:58:57.177Z,-2.94
2018-12-15T23:04:01.367Z,-2.96
2018-12-15T23:09:07.186Z,-2.95
2018-12-15T23:14:11.282Z,-2.93
2018-12-15T23:19:15.363Z,-2.94
2018-12-15T23:24:19.477Z,-2.92
2018-12-15T23:29:23.545Z,-2.91
2018-12-15T23:34:27.631Z,-2.91
2018-12-15T23:39:31.702Z,-2.88
2018-12-15T23:44:35.777Z,-2.87
2018-12-15T23:49:39.853Z,-2.85
2018-12-15T23:54:43.942Z,-2.87
2018-12-15T23:59:48.193Z,-2.86
